sensor_id;sensor_type;location;lat;lon;timestamp;temperature;humidity
38784;DHT22;24531;45.502;12.238;2022-11-18T00:01:31;15.30;99.90
38784;DHT22;24531;45.502;12.238;2022-11-18T00:03:57;15.20;99.90
38784;DHT22;24531;45.502;12.238;2022-11-18T00:06:24;15.30;99.90
38784;DHT22;24531;45.502;12.238;2022-11-18T00:08:51;15.30;99.90
38784;DHT22;24531;45.502;12.238;2022-11-18T00:11:19;15.30;99.90
38784;DHT22;24531;45.502;12.238;2022-11-18T00:14:05;15.30;99.90
38784;DHT22;24531;45.502;12.238;2022-11-18T00:16:44;15.20;99.90
38784;DHT22;24531;45.502;12.238;2022-11-18T00:19:10;15.20;99.90
38784;DHT22;24531;45.502;12.238;2022-11-18T00:21:35;15.20;99.90
38784;DHT22;24531;45.502;12.238;2022-11-18T00:24:01;15.20;99.90
38784;DHT22;24531;45.502;12.238;2022-11-18T00:26:26;15.30;99.90
38784;DHT22;24531;45.502;12.238;2022-11-18T00:28:52;15.40;99.90
38784;DHT22;24531;45.502;12.238;2022-11-18T00:31:18;15.40;99.90
38784;DHT22;24531;45.502;12.238;2022-11-18T00:33:43;15.40;99.90
38784;DHT22;24531;45.502;12.238;2022-11-18T00:36:10;15.40;99.90
38784;DHT22;24531;45.502;12.238;2022-11-18T00:38:37;15.40;99.90
38784;DHT22;24531;45.502;12.238;2022-11-18T00:41:11;15.40;99.90
38784;DHT22;24531;45.502;12.238;2022-11-18T00:43:36;15.40;99.90
38784;DHT22;24531;45.502;12.238;2022-11-18T00:46:03;15.40;99.90
38784;DHT22;24531;45.502;12.238;2022-11-18T00:48:29;15.50;99.90
38784;DHT22;24531;45.502;12.238;2022-11-18T00:50:56;15.50;99.90
38784;DHT22;24531;45.502;12.238;2022-11-18T00:53:24;15.50;99.90
38784;DHT22;24531;45.502;12.238;2022-11-18T00:55:50;15.50;99.90
38784;DHT22;24531;45.502;12.238;2022-11-18T00:58:16;15.40;99.90
38784;DHT22;24531;45.502;12.238;2022-11-18T01:00:49;15.40;99.90
38784;DHT22;24531;45.502;12.238;2022-11-18T01:03:15;15.30;99.90
38784;DHT22;24531;45.502;12.238;2022-11-18T01:05:40;15.30;99.90
38784;DHT22;24531;45.502;12.238;2022-11-18T01:08:09;15.30;99.90
38784;DHT22;24531;45.502;12.238;2022-11-18T01:10:35;15.20;99.90
38784;DHT22;24531;45.502;12.238;2022-11-18T01:13:01;15.10;99.90
38784;DHT22;24531;45.502;12.238;2022-11-18T01:15:56;15.10;99.90
38784;DHT22;24531;45.502;12.238;2022-11-18T01:18:24;15.20;99.90
38784;DHT22;24531;45.502;12.238;2022-11-18T01:20:50;15.20;99.90
38784;DHT22;24531;45.502;12.238;2022-11-18T01:23:18;15.30;99.90
38784;DHT22;24531;45.502;12.238;2022-11-18T01:25:45;15.30;99.90
38784;DHT22;24531;45.502;12.238;2022-11-18T01:28:11;15.40;99.90
38784;DHT22;24531;45.502;12.238;2022-11-18T01:30:39;15.40;99.90
38784;DHT22;24531;45.502;12.238;2022-11-18T01:33:06;15.40;99.90
38784;DHT22;24531;45.502;12.238;2022-11-18T01:35:49;15.30;99.90
38784;DHT22;24531;45.502;12.238;2022-11-18T01:38:15;15.20;99.90
38784;DHT22;24531;45.502;12.238;2022-11-18T01:40:41;15.10;99.90
38784;DHT22;24531;45.502;12.238;2022-11-18T01:43:12;15.10;99.90
38784;DHT22;24531;45.502;12.238;2022-11-18T01:45:39;15.20;99.90
38784;DHT22;24531;45.502;12.238;2022-11-18T01:48:33;15.20;99.90
38784;DHT22;24531;45.502;12.238;2022-11-18T01:51:06;15.20;99.90
38784;DHT22;24531;45.502;12.238;2022-11-18T01:53:36;15.20;99.90
38784;DHT22;24531;45.502;12.238;2022-11-18T01:56:07;15.20;99.90
38784;DHT22;24531;45.502;12.238;2022-11-18T01:58:56;15.20;99.90
38784;DHT22;24531;45.502;12.238;2022-11-18T02:05:01;15.30;99.90
38784;DHT22;24531;45.502;12.238;2022-11-18T02:07:49;15.30;99.90
38784;DHT22;24531;45.502;12.238;2022-11-18T02:10:22;15.30;99.90
38784;DHT22;24531;45.502;12.238;2022-11-18T02:12:50;15.30;99.90
38784;DHT22;24531;45.502;12.238;2022-11-18T02:15:44;15.40;99.90
38784;DHT22;24531;45.502;12.238;2022-11-18T02:24:14;15.30;99.90
38784;DHT22;24531;45.502;12.238;2022-11-18T02:30:31;15.40;99.90
38784;DHT22;24531;45.502;12.238;2022-11-18T02:34:01;15.40;99.90
38784;DHT22;24531;45.502;12.238;2022-11-18T02:36:31;15.40;99.90
38784;DHT22;24531;45.502;12.238;2022-11-18T02:39:09;15.50;99.90
38784;DHT22;24531;45.502;12.238;2022-11-18T02:41:37;15.40;99.90
38784;DHT22;24531;45.502;12.238;2022-11-18T02:44:11;15.50;99.90
38784;DHT22;24531;45.502;12.238;2022-11-18T02:46:38;15.50;99.90
38784;DHT22;24531;45.502;12.238;2022-11-18T02:49:16;15.50;99.90
38784;DHT22;24531;45.502;12.238;2022-11-18T02:51:48;15.50;99.90
38784;DHT22;24531;45.502;12.238;2022-11-18T02:54:22;15.50;99.90
38784;DHT22;24531;45.502;12.238;2022-11-18T02:56:50;15.50;99.90
38784;DHT22;24531;45.502;12.238;2022-11-18T02:59:27;15.50;99.90
38784;DHT22;24531;45.502;12.238;2022-11-18T03:02:01;15.50;99.90
38784;DHT22;24531;45.502;12.238;2022-11-18T03:04:33;15.50;99.90
38784;DHT22;24531;45.502;12.238;2022-11-18T03:07:28;15.40;99.90
38784;DHT22;24531;45.502;12.238;2022-11-18T03:09:56;15.30;99.90
38784;DHT22;24531;45.502;12.238;2022-11-18T03:19:11;15.30;99.90
38784;DHT22;24531;45.502;12.238;2022-11-18T03:21:50;15.30;99.90
38784;DHT22;24531;45.502;12.238;2022-11-18T03:24:21;15.20;99.90
38784;DHT22;24531;45.502;12.238;2022-11-18T03:26:55;15.20;99.90
38784;DHT22;24531;45.502;12.238;2022-11-18T03:29:35;15.30;99.90
38784;DHT22;24531;45.502;12.238;2022-11-18T03:32:05;15.30;99.90
38784;DHT22;24531;45.502;12.238;2022-11-18T03:34:42;15.30;99.90
38784;DHT22;24531;45.502;12.238;2022-11-18T03:37:11;15.30;99.90
38784;DHT22;24531;45.502;12.238;2022-11-18T03:39:42;15.40;99.90
38784;DHT22;24531;45.502;12.238;2022-11-18T03:42:18;15.40;99.90
38784;DHT22;24531;45.502;12.238;2022-11-18T03:44:51;15.30;99.90
38784;DHT22;24531;45.502;12.238;2022-11-18T03:47:25;15.40;99.90
38784;DHT22;24531;45.502;12.238;2022-11-18T03:50:08;15.40;99.90
38784;DHT22;24531;45.502;12.238;2022-11-18T03:52:38;15.50;99.90
38784;DHT22;24531;45.502;12.238;2022-11-18T03:55:17;15.40;99.90
38784;DHT22;24531;45.502;12.238;2022-11-18T04:00:21;15.50;99.90
38784;DHT22;24531;45.502;12.238;2022-11-18T04:02:48;15.50;99.90
38784;DHT22;24531;45.502;12.238;2022-11-18T04:05:15;15.50;99.90
38784;DHT22;24531;45.502;12.238;2022-11-18T04:07:54;15.50;99.90
38784;DHT22;24531;45.502;12.238;2022-11-18T04:13:27;15.60;99.90
38784;DHT22;24531;45.502;12.238;2022-11-18T04:15:54;15.50;99.90
38784;DHT22;24531;45.502;12.238;2022-11-18T04:18:20;15.60;99.90
38784;DHT22;24531;45.502;12.238;2022-11-18T04:20:46;15.60;99.90
38784;DHT22;24531;45.502;12.238;2022-11-18T04:23:12;15.60;99.90
38784;DHT22;24531;45.502;12.238;2022-11-18T04:25:38;15.60;99.90
38784;DHT22;24531;45.502;12.238;2022-11-18T04:28:04;15.60;99.90
38784;DHT22;24531;45.502;12.238;2022-11-18T04:30:29;15.50;99.90
38784;DHT22;24531;45.502;12.238;2022-11-18T04:32:56;15.50;99.90
38784;DHT22;24531;45.502;12.238;2022-11-18T04:35:21;15.50;99.90
38784;DHT22;24531;45.502;12.238;2022-11-18T04:37:47;15.50;99.90
38784;DHT22;24531;45.502;12.238;2022-11-18T04:40:12;15.50;99.90
38784;DHT22;24531;45.502;12.238;2022-11-18T04:42:38;15.50;99.90
38784;DHT22;24531;45.502;12.238;2022-11-18T04:45:04;15.50;99.90
38784;DHT22;24531;45.502;12.238;2022-11-18T04:47:30;15.50;99.90
38784;DHT22;24531;45.502;12.238;2022-11-18T04:49:56;15.40;99.90
38784;DHT22;24531;45.502;12.238;2022-11-18T04:52:21;15.50;99.90
38784;DHT22;24531;45.502;12.238;2022-11-18T04:54:47;15.50;99.90
38784;DHT22;24531;45.502;12.238;2022-11-18T04:57:13;15.50;99.90
38784;DHT22;24531;45.502;12.238;2022-11-18T04:59:38;15.50;99.90
38784;DHT22;24531;45.502;12.238;2022-11-18T05:02:04;15.50;99.90
38784;DHT22;24531;45.502;12.238;2022-11-18T05:04:32;15.50;99.90
38784;DHT22;24531;45.502;12.238;2022-11-18T05:06:59;15.40;99.90
38784;DHT22;24531;45.502;12.238;2022-11-18T05:09:26;15.50;99.90
38784;DHT22;24531;45.502;12.238;2022-11-18T05:11:52;15.50;99.90
38784;DHT22;24531;45.502;12.238;2022-11-18T05:14:36;15.50;99.90
38784;DHT22;24531;45.502;12.238;2022-11-18T05:17:03;15.50;99.90
38784;DHT22;24531;45.502;12.238;2022-11-18T05:19:29;15.40;99.90
38784;DHT22;24531;45.502;12.238;2022-11-18T05:21:56;15.40;99.90
38784;DHT22;24531;45.502;12.238;2022-11-18T05:24:21;15.50;99.90
38784;DHT22;24531;45.502;12.238;2022-11-18T05:26:51;15.50;99.90
38784;DHT22;24531;45.502;12.238;2022-11-18T05:29:17;15.50;99.90
38784;DHT22;24531;45.502;12.238;2022-11-18T05:31:44;15.50;99.90
38784;DHT22;24531;45.502;12.238;2022-11-18T05:34:09;15.50;99.90
38784;DHT22;24531;45.502;12.238;2022-11-18T05:36:35;15.50;99.90
38784;DHT22;24531;45.502;12.238;2022-11-18T05:39:01;15.50;99.90
38784;DHT22;24531;45.502;12.238;2022-11-18T05:41:27;15.50;99.90
38784;DHT22;24531;45.502;12.238;2022-11-18T05:44:11;15.50;99.90
38784;DHT22;24531;45.502;12.238;2022-11-18T05:46:36;15.50;99.90
38784;DHT22;24531;45.502;12.238;2022-11-18T05:49:02;15.50;99.90
38784;DHT22;24531;45.502;12.238;2022-11-18T05:51:28;15.50;99.90
38784;DHT22;24531;45.502;12.238;2022-11-18T05:53:53;15.60;99.90
38784;DHT22;24531;45.502;12.238;2022-11-18T05:56:27;15.60;99.90
38784;DHT22;24531;45.502;12.238;2022-11-18T05:58:53;15.60;99.90
38784;DHT22;24531;45.502;12.238;2022-11-18T06:01:23;15.60;99.90
38784;DHT22;24531;45.502;12.238;2022-11-18T06:03:50;15.60;99.90
38784;DHT22;24531;45.502;12.238;2022-11-18T06:06:18;15.60;99.90
38784;DHT22;24531;45.502;12.238;2022-11-18T06:08:54;15.60;99.90
38784;DHT22;24531;45.502;12.238;2022-11-18T06:11:20;15.60;99.90
38784;DHT22;24531;45.502;12.238;2022-11-18T06:14:00;15.60;99.90
38784;DHT22;24531;45.502;12.238;2022-11-18T06:16:30;15.50;99.90
38784;DHT22;24531;45.502;12.238;2022-11-18T06:18:58;15.50;99.90
38784;DHT22;24531;45.502;12.238;2022-11-18T06:21:25;15.50;99.90
38784;DHT22;24531;45.502;12.238;2022-11-18T06:23:51;15.50;99.90
38784;DHT22;24531;45.502;12.238;2022-11-18T06:26:17;15.40;99.90
38784;DHT22;24531;45.502;12.238;2022-11-18T06:28:45;15.50;99.90
38784;DHT22;24531;45.502;12.238;2022-11-18T06:31:11;15.50;99.90
38784;DHT22;24531;45.502;12.238;2022-11-18T06:33:37;15.50;99.90
38784;DHT22;24531;45.502;12.238;2022-11-18T06:36:02;15.50;99.90
38784;DHT22;24531;45.502;12.238;2022-11-18T06:38:28;15.50;99.90
38784;DHT22;24531;45.502;12.238;2022-11-18T06:40:58;15.60;99.90
38784;DHT22;24531;45.502;12.238;2022-11-18T06:43:24;15.50;99.90
38784;DHT22;24531;45.502;12.238;2022-11-18T06:46:13;15.50;99.90
38784;DHT22;24531;45.502;12.238;2022-11-18T06:48:59;15.50;99.90
38784;DHT22;24531;45.502;12.238;2022-11-18T06:51:26;15.40;99.90
38784;DHT22;24531;45.502;12.238;2022-11-18T06:53:53;15.40;99.90
38784;DHT22;24531;45.502;12.238;2022-11-18T06:56:20;15.40;99.90
38784;DHT22;24531;45.502;12.238;2022-11-18T06:58:46;15.50;99.90
38784;DHT22;24531;45.502;12.238;2022-11-18T07:01:17;15.50;99.90
38784;DHT22;24531;45.502;12.238;2022-11-18T07:03:44;15.50;99.90
38784;DHT22;24531;45.502;12.238;2022-11-18T07:06:11;15.50;99.90
38784;DHT22;24531;45.502;12.238;2022-11-18T07:08:38;15.40;99.90
38784;DHT22;24531;45.502;12.238;2022-11-18T07:11:06;15.40;99.90
38784;DHT22;24531;45.502;12.238;2022-11-18T07:13:33;15.40;99.90
38784;DHT22;24531;45.502;12.238;2022-11-18T07:16:07;15.50;99.90
38784;DHT22;24531;45.502;12.238;2022-11-18T07:18:34;15.50;99.90
38784;DHT22;24531;45.502;12.238;2022-11-18T07:21:03;15.50;99.90
38784;DHT22;24531;45.502;12.238;2022-11-18T07:23:31;15.50;99.90
38784;DHT22;24531;45.502;12.238;2022-11-18T07:25:57;15.50;99.90
38784;DHT22;24531;45.502;12.238;2022-11-18T07:28:22;15.60;99.90
38784;DHT22;24531;45.502;12.238;2022-11-18T07:30:48;15.60;99.90
38784;DHT22;24531;45.502;12.238;2022-11-18T07:33:14;15.50;99.90
38784;DHT22;24531;45.502;12.238;2022-11-18T07:35:39;15.50;99.90
38784;DHT22;24531;45.502;12.238;2022-11-18T07:38:05;15.50;99.90
38784;DHT22;24531;45.502;12.238;2022-11-18T07:40:30;15.50;99.90
38784;DHT22;24531;45.502;12.238;2022-11-18T07:42:56;15.50;99.90
38784;DHT22;24531;45.502;12.238;2022-11-18T07:45:22;15.60;99.90
38784;DHT22;24531;45.502;12.238;2022-11-18T07:47:48;15.60;99.90
38784;DHT22;24531;45.502;12.238;2022-11-18T07:50:14;15.60;99.90
38784;DHT22;24531;45.502;12.238;2022-11-18T07:52:40;15.60;99.90
38784;DHT22;24531;45.502;12.238;2022-11-18T07:55:05;15.70;99.90
38784;DHT22;24531;45.502;12.238;2022-11-18T07:57:31;15.70;99.90
38784;DHT22;24531;45.502;12.238;2022-11-18T07:59:57;15.80;99.90
38784;DHT22;24531;45.502;12.238;2022-11-18T08:02:22;15.80;99.90
38784;DHT22;24531;45.502;12.238;2022-11-18T08:04:48;15.80;99.90
38784;DHT22;24531;45.502;12.238;2022-11-18T08:07:14;15.90;99.90
38784;DHT22;24531;45.502;12.238;2022-11-18T08:09:39;15.90;99.90
38784;DHT22;24531;45.502;12.238;2022-11-18T08:12:05;15.90;99.90
38784;DHT22;24531;45.502;12.238;2022-11-18T08:14:31;15.90;99.90
38784;DHT22;24531;45.502;12.238;2022-11-18T08:16:56;15.80;99.90
38784;DHT22;24531;45.502;12.238;2022-11-18T08:19:22;15.80;99.90
38784;DHT22;24531;45.502;12.238;2022-11-18T08:21:47;15.80;99.90
38784;DHT22;24531;45.502;12.238;2022-11-18T08:24:13;15.80;99.90
38784;DHT22;24531;45.502;12.238;2022-11-18T08:26:39;15.80;99.90
38784;DHT22;24531;45.502;12.238;2022-11-18T08:29:04;15.90;99.90
38784;DHT22;24531;45.502;12.238;2022-11-18T08:31:30;15.90;99.90
38784;DHT22;24531;45.502;12.238;2022-11-18T08:34:00;15.90;99.90
38784;DHT22;24531;45.502;12.238;2022-11-18T08:36:29;16.00;99.90
38784;DHT22;24531;45.502;12.238;2022-11-18T08:39:00;16.00;99.90
38784;DHT22;24531;45.502;12.238;2022-11-18T08:41:36;16.00;99.90
38784;DHT22;24531;45.502;12.238;2022-11-18T08:44:02;16.00;99.90
38784;DHT22;24531;45.502;12.238;2022-11-18T08:46:29;16.10;99.90
38784;DHT22;24531;45.502;12.238;2022-11-18T08:48:55;16.10;99.90
38784;DHT22;24531;45.502;12.238;2022-11-18T08:51:21;16.20;99.90
38784;DHT22;24531;45.502;12.238;2022-11-18T08:53:46;16.20;99.90
38784;DHT22;24531;45.502;12.238;2022-11-18T08:56:15;16.30;99.90
38784;DHT22;24531;45.502;12.238;2022-11-18T08:58:41;16.40;99.90
38784;DHT22;24531;45.502;12.238;2022-11-18T09:01:07;16.50;99.90
38784;DHT22;24531;45.502;12.238;2022-11-18T09:03:34;16.70;99.90
38784;DHT22;24531;45.502;12.238;2022-11-18T09:08:36;16.90;99.90
38784;DHT22;24531;45.502;12.238;2022-11-18T09:11:11;17.00;99.90
38784;DHT22;24531;45.502;12.238;2022-11-18T09:13:37;17.00;99.90
38784;DHT22;24531;45.502;12.238;2022-11-18T09:16:03;17.00;99.90
38784;DHT22;24531;45.502;12.238;2022-11-18T09:18:29;17.00;99.90
38784;DHT22;24531;45.502;12.238;2022-11-18T09:21:00;17.00;99.90
38784;DHT22;24531;45.502;12.238;2022-11-18T09:23:26;17.00;99.90
38784;DHT22;24531;45.502;12.238;2022-11-18T09:28:29;16.90;99.90
38784;DHT22;24531;45.502;12.238;2022-11-18T09:30:54;16.90;99.90
38784;DHT22;24531;45.502;12.238;2022-11-18T09:33:20;16.90;99.90
38784;DHT22;24531;45.502;12.238;2022-11-18T09:35:46;16.90;99.90
38784;DHT22;24531;45.502;12.238;2022-11-18T09:38:12;16.90;99.90
38784;DHT22;24531;45.502;12.238;2022-11-18T09:46:34;16.80;99.90
38784;DHT22;24531;45.502;12.238;2022-11-18T09:49:22;16.80;99.90
38784;DHT22;24531;45.502;12.238;2022-11-18T09:51:50;16.80;99.90
38784;DHT22;24531;45.502;12.238;2022-11-18T09:54:25;16.90;99.90
38784;DHT22;24531;45.502;12.238;2022-11-18T09:56:53;17.00;99.90
38784;DHT22;24531;45.502;12.238;2022-11-18T09:59:24;17.10;99.90
38784;DHT22;24531;45.502;12.238;2022-11-18T10:01:54;17.20;99.90
38784;DHT22;24531;45.502;12.238;2022-11-18T10:04:22;17.30;99.90
38784;DHT22;24531;45.502;12.238;2022-11-18T10:06:49;17.50;99.90
38784;DHT22;24531;45.502;12.238;2022-11-18T10:09:33;17.60;99.90
38784;DHT22;24531;45.502;12.238;2022-11-18T10:14:48;17.70;99.90
38784;DHT22;24531;45.502;12.238;2022-11-18T10:17:43;17.70;99.90
38784;DHT22;24531;45.502;12.238;2022-11-18T10:23:42;17.90;99.90
38784;DHT22;24531;45.502;12.238;2022-11-18T10:26:10;17.90;99.90
38784;DHT22;24531;45.502;12.238;2022-11-18T10:28:36;18.00;99.90
38784;DHT22;24531;45.502;12.238;2022-11-18T10:31:05;18.00;99.90
38784;DHT22;24531;45.502;12.238;2022-11-18T10:33:31;18.10;99.90
38784;DHT22;24531;45.502;12.238;2022-11-18T10:38:41;18.00;99.90
38784;DHT22;24531;45.502;12.238;2022-11-18T10:41:17;18.00;99.90
38784;DHT22;24531;45.502;12.238;2022-11-18T10:43:48;18.00;99.90
38784;DHT22;24531;45.502;12.238;2022-11-18T10:46:16;17.90;99.90
38784;DHT22;24531;45.502;12.238;2022-11-18T10:48:42;17.70;99.90
38784;DHT22;24531;45.502;12.238;2022-11-18T10:51:22;17.60;99.90
38784;DHT22;24531;45.502;12.238;2022-11-18T10:53:48;17.50;99.90
38784;DHT22;24531;45.502;12.238;2022-11-18T10:56:14;17.40;99.90
38784;DHT22;24531;45.502;12.238;2022-11-18T10:58:42;17.40;99.90
38784;DHT22;24531;45.502;12.238;2022-11-18T11:01:19;17.40;99.90
38784;DHT22;24531;45.502;12.238;2022-11-18T11:04:11;17.40;99.90
38784;DHT22;24531;45.502;12.238;2022-11-18T11:06:37;17.40;99.90
38784;DHT22;24531;45.502;12.238;2022-11-18T11:09:09;17.40;99.90
38784;DHT22;24531;45.502;12.238;2022-11-18T11:12:14;17.40;99.90
38784;DHT22;24531;45.502;12.238;2022-11-18T11:14:54;17.50;99.90
38784;DHT22;24531;45.502;12.238;2022-11-18T11:17:34;17.50;99.90
38784;DHT22;24531;45.502;12.238;2022-11-18T11:22:30;17.50;99.90
38784;DHT22;24531;45.502;12.238;2022-11-18T11:24:56;17.40;99.90
38784;DHT22;24531;45.502;12.238;2022-11-18T11:30:16;17.50;99.90
38784;DHT22;24531;45.502;12.238;2022-11-18T11:35:53;17.50;99.90
38784;DHT22;24531;45.502;12.238;2022-11-18T11:38:37;17.50;99.90
38784;DHT22;24531;45.502;12.238;2022-11-18T11:43:58;17.50;99.90
38784;DHT22;24531;45.502;12.238;2022-11-18T11:51:52;17.50;99.90
38784;DHT22;24531;45.502;12.238;2022-11-18T11:54:23;17.50;99.90
38784;DHT22;24531;45.502;12.238;2022-11-18T11:57:07;17.60;99.90
38784;DHT22;24531;45.502;12.238;2022-11-18T12:00:01;17.60;99.90
38784;DHT22;24531;45.502;12.238;2022-11-18T12:07:53;17.70;99.90
38784;DHT22;24531;45.502;12.238;2022-11-18T12:10:41;17.70;99.90
38784;DHT22;24531;45.502;12.238;2022-11-18T12:27:06;17.80;99.90
38784;DHT22;24531;45.502;12.238;2022-11-18T12:29:53;17.80;99.90
38784;DHT22;24531;45.502;12.238;2022-11-18T12:32:33;17.80;99.90
38784;DHT22;24531;45.502;12.238;2022-11-18T12:48:02;18.00;99.90
38784;DHT22;24531;45.502;12.238;2022-11-18T12:50:55;18.10;99.90
38784;DHT22;24531;45.502;12.238;2022-11-18T12:53:40;18.10;99.90
38784;DHT22;24531;45.502;12.238;2022-11-18T12:56:26;18.10;99.90
38784;DHT22;24531;45.502;12.238;2022-11-18T12:58:57;18.10;99.90
38784;DHT22;24531;45.502;12.238;2022-11-18T13:01:32;18.20;99.90
38784;DHT22;24531;45.502;12.238;2022-11-18T13:04:08;18.20;99.90
38784;DHT22;24531;45.502;12.238;2022-11-18T13:06:38;18.20;99.90
38784;DHT22;24531;45.502;12.238;2022-11-18T13:09:06;18.20;99.90
38784;DHT22;24531;45.502;12.238;2022-11-18T13:11:46;18.20;99.90
38784;DHT22;24531;45.502;12.238;2022-11-18T13:14:21;18.10;99.90
38784;DHT22;24531;45.502;12.238;2022-11-18T13:17:31;18.10;99.70
38784;DHT22;24531;45.502;12.238;2022-11-18T13:20:26;18.20;99.70
38784;DHT22;24531;45.502;12.238;2022-11-18T13:22:57;18.20;99.50
38784;DHT22;24531;45.502;12.238;2022-11-18T13:25:46;18.20;99.50
38784;DHT22;24531;45.502;12.238;2022-11-18T13:30:58;18.30;99.30
38784;DHT22;24531;45.502;12.238;2022-11-18T13:33:25;18.20;99.10
38784;DHT22;24531;45.502;12.238;2022-11-18T13:35:51;18.20;99.20
38784;DHT22;24531;45.502;12.238;2022-11-18T13:38:22;18.20;99.10
38784;DHT22;24531;45.502;12.238;2022-11-18T13:40:50;18.20;99.00
38784;DHT22;24531;45.502;12.238;2022-11-18T13:43:37;18.20;98.90
38784;DHT22;24531;45.502;12.238;2022-11-18T13:46:08;18.10;98.90
38784;DHT22;24531;45.502;12.238;2022-11-18T13:48:40;18.20;98.90
38784;DHT22;24531;45.502;12.238;2022-11-18T13:51:11;18.10;98.80
38784;DHT22;24531;45.502;12.238;2022-11-18T13:53:37;18.20;98.80
38784;DHT22;24531;45.502;12.238;2022-11-18T14:01:34;18.10;98.30
38784;DHT22;24531;45.502;12.238;2022-11-18T14:04:24;18.00;98.60
38784;DHT22;24531;45.502;12.238;2022-11-18T14:06:50;18.10;98.30
38784;DHT22;24531;45.502;12.238;2022-11-18T14:09:26;18.00;98.30
38784;DHT22;24531;45.502;12.238;2022-11-18T14:12:04;18.10;98.30
38784;DHT22;24531;45.502;12.238;2022-11-18T14:14:32;18.10;98.20
38784;DHT22;24531;45.502;12.238;2022-11-18T14:17:25;18.10;98.20
38784;DHT22;24531;45.502;12.238;2022-11-18T14:19:58;18.10;98.20
38784;DHT22;24531;45.502;12.238;2022-11-18T14:22:25;18.20;98.20
38784;DHT22;24531;45.502;12.238;2022-11-18T14:27:39;18.10;98.30
38784;DHT22;24531;45.502;12.238;2022-11-18T14:30:26;18.00;98.20
38784;DHT22;24531;45.502;12.238;2022-11-18T14:33:22;18.00;98.20
38784;DHT22;24531;45.502;12.238;2022-11-18T14:35:49;18.00;98.10
38784;DHT22;24531;45.502;12.238;2022-11-18T14:38:19;18.00;98.00
38784;DHT22;24531;45.502;12.238;2022-11-18T14:40:45;18.00;98.00
38784;DHT22;24531;45.502;12.238;2022-11-18T14:43:11;18.00;98.10
38784;DHT22;24531;45.502;12.238;2022-11-18T14:45:39;17.90;98.10
38784;DHT22;24531;45.502;12.238;2022-11-18T14:48:06;17.90;98.20
38784;DHT22;24531;45.502;12.238;2022-11-18T14:50:34;17.90;98.20
38784;DHT22;24531;45.502;12.238;2022-11-18T14:53:00;17.90;98.10
38784;DHT22;24531;45.502;12.238;2022-11-18T14:55:25;17.90;98.30
38784;DHT22;24531;45.502;12.238;2022-11-18T14:57:51;17.80;98.40
38784;DHT22;24531;45.502;12.238;2022-11-18T15:00:17;17.90;98.40
38784;DHT22;24531;45.502;12.238;2022-11-18T15:02:43;17.80;98.40
38784;DHT22;24531;45.502;12.238;2022-11-18T15:05:09;17.80;98.50
38784;DHT22;24531;45.502;12.238;2022-11-18T15:07:35;17.70;98.60
38784;DHT22;24531;45.502;12.238;2022-11-18T15:10:01;17.80;98.60
38784;DHT22;24531;45.502;12.238;2022-11-18T15:12:27;17.70;98.50
38784;DHT22;24531;45.502;12.238;2022-11-18T15:14:53;17.70;98.70
38784;DHT22;24531;45.502;12.238;2022-11-18T15:17:18;17.60;98.80
38784;DHT22;24531;45.502;12.238;2022-11-18T15:19:44;17.60;98.90
38784;DHT22;24531;45.502;12.238;2022-11-18T15:22:10;17.60;98.90
38784;DHT22;24531;45.502;12.238;2022-11-18T15:24:36;17.60;98.90
38784;DHT22;24531;45.502;12.238;2022-11-18T15:27:01;17.60;98.90
38784;DHT22;24531;45.502;12.238;2022-11-18T15:29:30;17.60;99.00
38784;DHT22;24531;45.502;12.238;2022-11-18T15:31:55;17.50;99.10
38784;DHT22;24531;45.502;12.238;2022-11-18T15:34:21;17.40;99.30
38784;DHT22;24531;45.502;12.238;2022-11-18T15:36:47;17.40;99.40
38784;DHT22;24531;45.502;12.238;2022-11-18T15:39:13;17.40;99.40
38784;DHT22;24531;45.502;12.238;2022-11-18T15:41:40;17.40;99.40
38784;DHT22;24531;45.502;12.238;2022-11-18T15:44:08;17.40;99.50
38784;DHT22;24531;45.502;12.238;2022-11-18T15:46:34;17.30;99.60
38784;DHT22;24531;45.502;12.238;2022-11-18T15:49:00;17.30;99.60
38784;DHT22;24531;45.502;12.238;2022-11-18T15:51:27;17.30;99.60
38784;DHT22;24531;45.502;12.238;2022-11-18T15:53:53;17.20;99.70
38784;DHT22;24531;45.502;12.238;2022-11-18T15:56:24;17.20;99.70
38784;DHT22;24531;45.502;12.238;2022-11-18T15:59:03;17.10;99.80
38784;DHT22;24531;45.502;12.238;2022-11-18T16:01:38;17.10;99.90
38784;DHT22;24531;45.502;12.238;2022-11-18T16:04:05;17.00;99.90
38784;DHT22;24531;45.502;12.238;2022-11-18T16:06:31;17.00;99.90
38784;DHT22;24531;45.502;12.238;2022-11-18T16:08:57;16.90;99.90
38784;DHT22;24531;45.502;12.238;2022-11-18T16:11:23;16.90;99.90
38784;DHT22;24531;45.502;12.238;2022-11-18T16:14:09;16.80;99.90
38784;DHT22;24531;45.502;12.238;2022-11-18T16:16:36;16.80;99.90
38784;DHT22;24531;45.502;12.238;2022-11-18T16:19:05;16.80;99.90
38784;DHT22;24531;45.502;12.238;2022-11-18T16:21:34;16.80;99.90
38784;DHT22;24531;45.502;12.238;2022-11-18T16:24:02;16.70;99.90
38784;DHT22;24531;45.502;12.238;2022-11-18T16:26:28;16.70;99.90
38784;DHT22;24531;45.502;12.238;2022-11-18T16:28:57;16.60;99.90
38784;DHT22;24531;45.502;12.238;2022-11-18T16:31:23;16.60;99.90
38784;DHT22;24531;45.502;12.238;2022-11-18T16:34:14;16.60;99.90
38784;DHT22;24531;45.502;12.238;2022-11-18T16:36:43;16.60;99.90
38784;DHT22;24531;45.502;12.238;2022-11-18T16:39:15;16.50;99.90
38784;DHT22;24531;45.502;12.238;2022-11-18T16:41:41;16.50;99.90
38784;DHT22;24531;45.502;12.238;2022-11-18T16:44:12;16.50;99.90
38784;DHT22;24531;45.502;12.238;2022-11-18T16:46:40;16.40;99.90
38784;DHT22;24531;45.502;12.238;2022-11-18T16:49:10;16.30;99.90
38784;DHT22;24531;45.502;12.238;2022-11-18T16:51:36;16.30;99.90
38784;DHT22;24531;45.502;12.238;2022-11-18T16:54:05;16.30;99.90
38784;DHT22;24531;45.502;12.238;2022-11-18T16:56:33;16.30;99.90
38784;DHT22;24531;45.502;12.238;2022-11-18T17:01:25;16.10;99.90
38784;DHT22;24531;45.502;12.238;2022-11-18T17:03:52;16.10;99.90
38784;DHT22;24531;45.502;12.238;2022-11-18T17:06:19;16.10;99.90
38784;DHT22;24531;45.502;12.238;2022-11-18T17:08:45;16.10;99.90
38784;DHT22;24531;45.502;12.238;2022-11-18T17:11:11;16.10;99.90
38784;DHT22;24531;45.502;12.238;2022-11-18T17:13:37;16.00;99.90
38784;DHT22;24531;45.502;12.238;2022-11-18T17:16:09;16.00;99.90
38784;DHT22;24531;45.502;12.238;2022-11-18T17:18:36;16.00;99.90
38784;DHT22;24531;45.502;12.238;2022-11-18T17:21:07;16.00;99.90
38784;DHT22;24531;45.502;12.238;2022-11-18T17:23:34;15.90;99.90